M I D A S
Marine Information and Data Acquisition System
Tripno 1737 of the Zeeleeuw from 2009-07-23 07:29:28 to 2009-07-23 14:44:42
Back to CruiseResearch ActivitiesStationsMapUnderway DataData graphs

EquipmentUnitsComments
TimeDGPSUTC
LatitudeDGPSDM.mWGS84
LongitudeDGPSDM.mWGS84
SpeedMeteo Stationm/sRelative wind speed
DirectionMeteo StationdegRelative wind direction
TemperatureMeteo Stationdeg CelciusAir temperature
PressureMeteo StationPaAtmospheric pressure
HumidityMeteo Station%Relative humidity
Missing or incorrect values are displayed as -999
Metereological data collected by the RV Zeeleeuw from 2009-07-23 07:24:28 to 2009-07-23 14:51:59
                                                                                    Next 1000 lines
Time Latitude Longitude Speed Direction Temperature Pressure Humidity
2009-07-23 07:24:38 51°13.663 2°55.956 2.3 27 15.4 100290 88
2009-07-23 07:24:43 51°13.664 2°55.954 2.8 29 15.4 100290 88
2009-07-23 07:24:47 51°13.665 2°55.951 3 31 15.4 100290 88
2009-07-23 07:24:53 51°13.666 2°55.947 3.2 35 15.3 100290 88
2009-07-23 07:24:58 51°13.667 2°55.943 3.1 33 15.3 100290 88
2009-07-23 07:25:02 51°13.669 2°55.939 3.1 39 15.3 100290 88
2009-07-23 07:25:08 51°13.67 2°55.934 2.8 32 15.3 100290 88
2009-07-23 07:25:13 51°13.672 2°55.928 2.6 30 15.3 100290 88
2009-07-23 07:25:18 51°13.674 2°55.923 2.2 31 15.3 100290 88
2009-07-23 07:25:22 51°13.675 2°55.918 2.3 34 15.3 100290 87
2009-07-23 07:25:27 51°13.676 2°55.913 2.1 35 15.3 100290 87
2009-07-23 07:25:33 51°13.679 2°55.905 2.4 31 15.3 100290 87
2009-07-23 07:25:38 51°13.68 2°55.899 2.1 39 15.3 100290 87
2009-07-23 07:25:42 51°13.682 2°55.894 2.5 43 15.3 100290 87
2009-07-23 07:25:47 51°13.684 2°55.887 3.5 35 15.3 100290 87
2009-07-23 07:25:53 51°13.686 2°55.879 2.9 33 15.3 100300 87
2009-07-23 07:25:58 51°13.688 2°55.872 2.7 38 15.3 100300 87
2009-07-23 07:26:02 51°13.69 2°55.866 3.4 39 15.3 100290 88
2009-07-23 07:26:07 51°13.692 2°55.859 3 39 15.3 100290 88
2009-07-23 07:26:13 51°13.693 2°55.851 3.2 38 15.3 100300 89
2009-07-23 07:26:18 51°13.695 2°55.844 2.6 41 15.3 100300 89
2009-07-23 07:26:23 51°13.696 2°55.837 2.8 26 15.3 100290 88
2009-07-23 07:26:27 51°13.697 2°55.831 2.1 38 15.3 100290 88
2009-07-23 07:26:33 51°13.697 2°55.823 2.4 44 15.3 100290 88
2009-07-23 07:26:38 51°13.698 2°55.817 3 44 15.3 100290 88
2009-07-23 07:26:43 51°13.698 2°55.81 2.7 28 15.3 100300 88
2009-07-23 07:26:48 51°13.698 2°55.804 3.3 58 15.3 100300 88
2009-07-23 07:26:53 51°13.699 2°55.798 3.4 29 15.3 100300 87
2009-07-23 07:26:58 51°13.698 2°55.792 2.8 52 15.3 100300 87
2009-07-23 07:27:02 51°13.698 2°55.788 3.1 27 15.4 100290 85
2009-07-23 07:27:08 51°13.698 2°55.781 2.8 50 15.4 100290 85
2009-07-23 07:27:12 51°13.698 2°55.777 3 43 15.4 100300 89
2009-07-23 07:27:17 51°13.698 2°55.772 3 39 15.4 100300 89
2009-07-23 07:27:22 51°13.697 2°55.768 2.5 43 15.4 100300 89
2009-07-23 07:27:27 51°13.697 2°55.763 2.8 76 15.4 100300 89
2009-07-23 07:27:31 51°13.696 2°55.76 3.2 25 15.4 100300 87
2009-07-23 07:27:36 51°13.696 2°55.756 2.5 58 15.4 100300 87
2009-07-23 07:27:41 51°13.695 2°55.752 2.6 24 15.4 100290 88
2009-07-23 07:27:46 51°13.695 2°55.748 2.1 56 15.4 100290 88
2009-07-23 07:27:51 51°13.695 2°55.745 2.9 19 15.3 100300 89
2009-07-23 07:27:56 51°13.695 2°55.743 2.2 57 15.3 100300 89
2009-07-23 07:28:01 51°13.695 2°55.741 2.5 27 15.3 100290 86
2009-07-23 07:28:05 51°13.695 2°55.74 1.9 58 15.3 100290 86
2009-07-23 07:28:10 51°13.695 2°55.739 1.6 28 15.3 100290 89
2009-07-23 07:28:15 51°13.696 2°55.739 1.7 53 15.3 100290 89
2009-07-23 07:28:20 51°13.696 2°55.739 1.2 25 15.3 100300 87
2009-07-23 07:28:25 51°13.698 2°55.739 1.4 74 15.3 100300 87
2009-07-23 07:28:30 51°13.699 2°55.739 1.2 27 15.3 100300 86
2009-07-23 07:28:34 51°13.7 2°55.739 0.7 55 15.3 100300 86
2009-07-23 07:28:39 51°13.702 2°55.739 0.3 21 15.3 100290 86
2009-07-23 07:28:44 51°13.704 2°55.74 0.2 52 15.3 100290 86
2009-07-23 07:28:49 51°13.708 2°55.739 0.1 28 15.3 100290 88
2009-07-23 07:28:54 51°13.712 2°55.739 0.8 307 15.3 100290 88
2009-07-23 07:28:59 51°13.716 2°55.737 1.1 23 15.3 100300 86
2009-07-23 07:29:05 51°13.722 2°55.733 1.4 303 15.3 100300 86
2009-07-23 07:29:10 51°13.727 2°55.73 1.8 27 15.3 100300 84
2009-07-23 07:29:14 51°13.73 2°55.726 1.2 310 15.3 100300 84
2009-07-23 07:29:19 51°13.735 2°55.721 1.8 247 15.3 100290 88
2009-07-23 07:29:24 51°13.741 2°55.715 2.3 307 15.3 100290 88
2009-07-23 07:29:29 51°13.747 2°55.709 2.4 245 15.3 100290 86
2009-07-23 07:29:34 51°13.754 2°55.702 2.1 309 15.3 100290 86
2009-07-23 07:29:39 51°13.762 2°55.695 1.8 28 15.4 100290 88
2009-07-23 07:29:44 51°13.77 2°55.686 1.6 302 15.4 100290 88
2009-07-23 07:29:49 51°13.779 2°55.678 1.5 327 15.4 100290 87
2009-07-23 07:29:54 51°13.788 2°55.67 3.5 308 15.4 100290 87
2009-07-23 07:29:59 51°13.798 2°55.661 3.3 322 15.4 100290 86
2009-07-23 07:30:04 51°13.809 2°55.652 3 304 15.4 100290 86
2009-07-23 07:30:09 51°13.819 2°55.644 3.6 318 15.3 100290 80
2009-07-23 07:30:14 51°13.83 2°55.635 2.6 322 15.3 100290 80
2009-07-23 07:30:19 51°13.841 2°55.626 2.8 323 15.3 100290 86
2009-07-23 07:30:24 51°13.852 2°55.617 3 304 15.3 100290 86
2009-07-23 07:30:29 51°13.864 2°55.608 3.5 330 15.3 100290 71
2009-07-23 07:30:34 51°13.875 2°55.598 3.1 303 15.3 100290 71
2009-07-23 07:30:39 51°13.887 2°55.589 3.6 326 15.3 100290 91
2009-07-23 07:30:44 51°13.898 2°55.58 3.5 307 15.3 100290 91
2009-07-23 07:30:49 51°13.91 2°55.571 3.5 328 15.3 100290 85
2009-07-23 07:30:54 51°13.922 2°55.562 3.1 330 15.3 100290 85
2009-07-23 07:30:59 51°13.933 2°55.553 3.6 327 15.3 100290 86
2009-07-23 07:31:04 51°13.945 2°55.544 3.4 307 15.3 100290 86
2009-07-23 07:31:09 51°13.957 2°55.535 2.8 26 15.4 100290 85
2009-07-23 07:31:14 51°13.969 2°55.526 2.9 305 15.4 100290 85
2009-07-23 07:31:19 51°13.981 2°55.517 2.4 319 15.4 100280 87
2009-07-23 07:31:24 51°13.993 2°55.509 3.1 330 15.4 100280 87
2009-07-23 07:31:29 51°14.005 2°55.5 2.9 328 15.4 100280 84
2009-07-23 07:31:34 51°14.017 2°55.491 2.8 303 15.4 100280 84
2009-07-23 07:31:39 51°14.029 2°55.481 3.2 21 15.4 100290 84
2009-07-23 07:31:44 51°14.04 2°55.472 3.3 326 15.4 100290 84
2009-07-23 07:31:49 51°14.052 2°55.463 2.8 320 15.4 100280 85
2009-07-23 07:31:54 51°14.064 2°55.454 3 309 15.4 100280 85
2009-07-23 07:31:59 51°14.076 2°55.446 2.5 26 15.4 100290 87
2009-07-23 07:32:04 51°14.088 2°55.436 3.2 330 15.4 100290 87
2009-07-23 07:32:09 51°14.1 2°55.427 3.6 319 15.4 100290 81
2009-07-23 07:32:14 51°14.111 2°55.418 3 302 15.4 100290 81
2009-07-23 07:32:19 51°14.123 2°55.408 3.4 315 15.4 100290 85
2009-07-23 07:32:24 51°14.134 2°55.399 3.2 281 15.4 100290 85
2009-07-23 07:32:29 51°14.146 2°55.389 3.5 326 15.4 100280 85
2009-07-23 07:32:34 51°14.157 2°55.379 2.9 326 15.4 100280 85
2009-07-23 07:32:39 51°14.168 2°55.368 3 331 15.4 100280 87
2009-07-23 07:32:44 51°14.179 2°55.357 3.4 305 15.4 100280 87
2009-07-23 07:32:49 51°14.189 2°55.345 2.9 21 15.4 100280 84
2009-07-23 07:32:54 51°14.2 2°55.334 2.8 301 15.4 100280 84
2009-07-23 07:32:59 51°14.21 2°55.321 3.9 26 15.4 100290 87
2009-07-23 07:33:04 51°14.22 2°55.309 3.1 302 15.4 100290 87
2009-07-23 07:33:09 51°14.23 2°55.296 4.5 328 15.4 100290 87
2009-07-23 07:33:14 51°14.24 2°55.283 3.8 328 15.4 100290 87
2009-07-23 07:33:19 51°14.249 2°55.269 4 324 15.4 100280 87
2009-07-23 07:33:24 51°14.258 2°55.255 4.1 308 15.4 100280 87
2009-07-23 07:33:29 51°14.267 2°55.24 3.7 21 15.4 100280 85
2009-07-23 07:33:34 51°14.276 2°55.225 4.8 306 15.4 100280 85
2009-07-23 07:33:39 51°14.285 2°55.209 4.6 22 15.4 100280 83
2009-07-23 07:33:44 51°14.294 2°55.194 4.5 304 15.4 100280 83
2009-07-23 07:33:49 51°14.303 2°55.179 4.7 318 15.4 100280 87
2009-07-23 07:33:54 51°14.312 2°55.163 4.9 303 15.4 100280 87
2009-07-23 07:33:59 51°14.321 2°55.147 4.1 320 15.4 100280 85
2009-07-23 07:34:04 51°14.331 2°55.131 4.6 308 15.4 100280 85
2009-07-23 07:34:09 51°14.34 2°55.115 4.6 319 15.4 100280 81
2009-07-23 07:34:14 51°14.349 2°55.099 5.2 303 15.4 100280 81
2009-07-23 07:34:19 51°14.358 2°55.083 4.9 23 15.4 100280 86
2009-07-23 07:34:24 51°14.368 2°55.067 4.7 285 15.4 100280 86
2009-07-23 07:34:29 51°14.377 2°55.05 5.6 22 15.4 100290 89
2009-07-23 07:34:34 51°14.388 2°55.034 5.6 302 15.4 100290 89
2009-07-23 07:34:39 51°14.398 2°55.019 5.1 21 15.4 100290 88
2009-07-23 07:34:44 51°14.409 2°55.004 5.9 307 15.4 100290 88
2009-07-23 07:34:49 51°14.419 2°54.989 5.5 26 15.4 100280 88
2009-07-23 07:34:54 51°14.43 2°54.974 5.7 304 15.4 100280 88
2009-07-23 07:34:59 51°14.441 2°54.96 4.2 21 15.3 100290 89
2009-07-23 07:35:04 51°14.453 2°54.945 4.7 303 15.3 100290 89
2009-07-23 07:35:09 51°14.464 2°54.93 4.2 20 15.3 100280 87
2009-07-23 07:35:14 51°14.476 2°54.916 5.4 309 15.3 100280 87
2009-07-23 07:35:19 51°14.487 2°54.901 5 22 15.3 100290 86
2009-07-23 07:35:24 51°14.499 2°54.887 4.9 304 15.3 100290 86
2009-07-23 07:35:29 51°14.512 2°54.874 5.9 20 15.3 100290 82
2009-07-23 07:35:34 51°14.524 2°54.861 4.9 302 15.3 100290 82
2009-07-23 07:35:39 51°14.537 2°54.848 4.9 25 15.3 100280 74
2009-07-23 07:35:44 51°14.55 2°54.836 4.8 304 15.3 100280 74
2009-07-23 07:35:49 51°14.563 2°54.823 5.9 27 15.3 100290 87
2009-07-23 07:35:54 51°14.575 2°54.809 4.9 304 15.3 100290 87
2009-07-23 07:35:59 51°14.588 2°54.795 5.1 28 15.3 100290 85
2009-07-23 07:36:04 51°14.601 2°54.782 5.6 307 15.3 100290 85
2009-07-23 07:36:09 51°14.614 2°54.768 4.5 26 15.3 100290 87
2009-07-23 07:36:14 51°14.627 2°54.755 4.9 305 15.3 100290 87
2009-07-23 07:36:19 51°14.64 2°54.741 5.8 21 15.3 100290 84
2009-07-23 07:36:24 51°14.653 2°54.728 6.3 282 15.3 100290 84
2009-07-23 07:36:29 51°14.666 2°54.714 5.9 23 15.4 100280 86
2009-07-23 07:36:34 51°14.679 2°54.7 6.2 309 15.4 100280 86
2009-07-23 07:36:39 51°14.692 2°54.686 5.3 28 15.3 100290 85
2009-07-23 07:36:44 51°14.706 2°54.672 6.3 307 15.3 100290 85
2009-07-23 07:36:49 51°14.719 2°54.659 5.5 25 15.4 100290 87
2009-07-23 07:36:54 51°14.732 2°54.645 6.2 303 15.4 100290 87
2009-07-23 07:36:59 51°14.745 2°54.632 4.9 21 15.4 100280 87
2009-07-23 07:37:04 51°14.759 2°54.618 5.9 304 15.4 100280 87
2009-07-23 07:37:09 51°14.772 2°54.604 4.8 24 15.4 100280 88
2009-07-23 07:37:14 51°14.785 2°54.591 5.9 306 15.4 100280 88
2009-07-23 07:37:19 51°14.798 2°54.577 5.6 26 15.4 100290 87
2009-07-23 07:37:24 51°14.812 2°54.564 5.7 304 15.4 100290 87
2009-07-23 07:37:29 51°14.825 2°54.551 4.8 23 15.4 100290 86
2009-07-23 07:37:34 51°14.838 2°54.538 5 309 15.4 100290 86
2009-07-23 07:37:39 51°14.852 2°54.525 5.5 26 15.4 100290 86
2009-07-23 07:37:44 51°14.865 2°54.513 6.1 302 15.4 100290 86
2009-07-23 07:37:49 51°14.879 2°54.5 5.2 20 15.4 100290 86
2009-07-23 07:37:54 51°14.892 2°54.487 4.8 309 15.4 100290 86
2009-07-23 07:37:59 51°14.905 2°54.474 5.9 19 15.4 100290 87
2009-07-23 07:38:04 51°14.919 2°54.462 5.4 305 15.4 100290 87
2009-07-23 07:38:09 51°14.932 2°54.45 6.1 26 15.4 100290 86
2009-07-23 07:38:14 51°14.946 2°54.438 6.1 309 15.4 100290 86
2009-07-23 07:38:19 51°14.959 2°54.427 5.5 25 15.4 100290 88
2009-07-23 07:38:24 51°14.973 2°54.415 6.3 282 15.4 100290 88
2009-07-23 07:38:29 51°14.987 2°54.404 5 27 15.4 100290 88
2009-07-23 07:38:34 51°15.001 2°54.392 6.2 307 15.4 100290 88
2009-07-23 07:38:39 51°15.014 2°54.38 6 19 15.4 100290 85
2009-07-23 07:38:44 51°15.028 2°54.368 5 309 15.4 100290 85
2009-07-23 07:38:49 51°15.041 2°54.355 5.3 21 15.4 100290 87
2009-07-23 07:38:54 51°15.055 2°54.343 4.9 302 15.4 100290 87
2009-07-23 07:38:59 51°15.068 2°54.331 4 24 15.4 100290 87
2009-07-23 07:39:04 51°15.082 2°54.319 5.6 310 15.4 100290 87
2009-07-23 07:39:09 51°15.095 2°54.307 5.1 25 15.4 100290 89
2009-07-23 07:39:14 51°15.109 2°54.295 5.8 308 15.4 100290 89
2009-07-23 07:39:19 51°15.122 2°54.282 5.5 25 15.4 100290 87
2009-07-23 07:39:24 51°15.135 2°54.27 5.3 302 15.4 100290 87
2009-07-23 07:39:29 51°15.149 2°54.258 4.4 28 15.4 100290 89
2009-07-23 07:39:34 51°15.162 2°54.246 5.4 309 15.4 100290 89
2009-07-23 07:39:39 51°15.176 2°54.233 5.3 25 15.4 100290 85
2009-07-23 07:39:44 51°15.189 2°54.221 5.6 308 15.4 100290 85
2009-07-23 07:39:49 51°15.203 2°54.209 5.5 24 15.5 100290 86
2009-07-23 07:39:54 51°15.216 2°54.197 4.5 309 15.5 100290 86
2009-07-23 07:39:59 51°15.229 2°54.184 6.2 26 15.5 100290 87
2009-07-23 07:40:04 51°15.243 2°54.172 4.5 307 15.5 100290 87
2009-07-23 07:40:09 51°15.256 2°54.159 4.8 24 15.5 100290 87
2009-07-23 07:40:14 51°15.27 2°54.147 5.8 302 15.5 100290 87
2009-07-23 07:40:19 51°15.283 2°54.134 5.8 24 15.5 100290 85
2009-07-23 07:40:24 51°15.297 2°54.122 5.7 279 15.5 100290 85
2009-07-23 07:40:29 51°15.31 2°54.11 6.2 22 15.5 100290 86
2009-07-23 07:40:34 51°15.324 2°54.098 5 305 15.5 100290 86
2009-07-23 07:40:39 51°15.337 2°54.086 5.7 25 15.6 100290 89
2009-07-23 07:40:44 51°15.351 2°54.074 4.4 302 15.6 100290 89
2009-07-23 07:40:49 51°15.365 2°54.063 5 22 15.5 100290 86
2009-07-23 07:40:54 51°15.379 2°54.051 5.2 303 15.5 100290 86
2009-07-23 07:40:59 51°15.392 2°54.039 4.4 27 15.6 100290 88
2009-07-23 07:41:04 51°15.406 2°54.028 4.8 304 15.6 100290 88
2009-07-23 07:41:09 51°15.42 2°54.016 5.6 21 15.6 100290 89
2009-07-23 07:41:14 51°15.433 2°54.004 5.4 307 15.6 100290 89
2009-07-23 07:41:19 51°15.447 2°53.992 4.4 22 15.6 100290 88
2009-07-23 07:41:24 51°15.461 2°53.98 5.7 308 15.6 100290 88
2009-07-23 07:41:29 51°15.474 2°53.967 5.4 21 15.6 100290 88
2009-07-23 07:41:34 51°15.488 2°53.954 4.9 309 15.6 100290 88
2009-07-23 07:41:39 51°15.501 2°53.942 6.6 23 15.6 100290 90
2009-07-23 07:41:44 51°15.515 2°53.93 5.7 304 15.6 100290 90
2009-07-23 07:41:49 51°15.528 2°53.917 5.9 27 15.6 100290 90
2009-07-23 07:41:54 51°15.541 2°53.904 4.9 304 15.6 100290 90
2009-07-23 07:41:59 51°15.555 2°53.891 4.4 21 15.6 100290 88
2009-07-23 07:42:04 51°15.568 2°53.879 4.4 309 15.6 100290 88
2009-07-23 07:42:09 51°15.582 2°53.866 5.9 22 15.6 100280 90
2009-07-23 07:42:14 51°15.595 2°53.853 5.7 301 15.6 100280 90
2009-07-23 07:42:19 51°15.609 2°53.841 5.7 26 15.6 100290 89
2009-07-23 07:42:24 51°15.622 2°53.829 4.6 279 15.6 100290 89
2009-07-23 07:42:29 51°15.636 2°53.816 5.4 25 15.6 100290 90
2009-07-23 07:42:34 51°15.649 2°53.804 4.9 302 15.6 100290 90
2009-07-23 07:42:39 51°15.663 2°53.791 4.6 23 15.6 100290 89
2009-07-23 07:42:44 51°15.676 2°53.778 4.8 304 15.6 100290 89
2009-07-23 07:42:49 51°15.69 2°53.766 5.1 26 15.6 100290 86
2009-07-23 07:42:54 51°15.704 2°53.754 5.1 308 15.6 100290 86
2009-07-23 07:42:59 51°15.717 2°53.742 5 23 15.6 100290 87
2009-07-23 07:43:04 51°15.731 2°53.729 6.2 307 15.6 100290 87
2009-07-23 07:43:09 51°15.745 2°53.716 6.6 23 15.6 100290 88
2009-07-23 07:43:14 51°15.758 2°53.703 6.3 304 15.6 100290 88
2009-07-23 07:43:19 51°15.772 2°53.691 6.8 27 15.6 100290 88
2009-07-23 07:43:23 51°15.783 2°53.681 5.4 304 15.6 100290 88
2009-07-23 07:43:29 51°15.799 2°53.666 6.3 26 15.6 100290 89
2009-07-23 07:43:34 51°15.813 2°53.653 6.6 308 15.6 100290 89
2009-07-23 07:43:38 51°15.824 2°53.644 6.4 246 15.6 100290 86
2009-07-23 07:43:43 51°15.837 2°53.631 5.2 309 15.6 100290 86
2009-07-23 07:43:49 51°15.854 2°53.616 5.5 20 15.6 100290 87
2009-07-23 07:43:54 51°15.867 2°53.603 6.2 303 15.6 100290 87
2009-07-23 07:43:59 51°15.881 2°53.591 5.7 26 15.6 100290 87
2009-07-23 07:44:04 51°15.895 2°53.578 5.7 309 15.6 100290 87
2009-07-23 07:44:09 51°15.908 2°53.565 5.1 23 15.7 100290 88
2009-07-23 07:44:14 51°15.922 2°53.553 5.5 304 15.7 100290 88
2009-07-23 07:44:19 51°15.936 2°53.54 5.6 244 15.6 100290 88
2009-07-23 07:44:24 51°15.949 2°53.528 6 283 15.6 100290 88
2009-07-23 07:44:29 51°15.963 2°53.515 6.4 23 15.6 100300 89
2009-07-23 07:44:34 51°15.976 2°53.502 6 304 15.6 100300 89
2009-07-23 07:44:39 51°15.99 2°53.489 5.7 19 15.6 100290 89
2009-07-23 07:44:44 51°16.003 2°53.476 5.4 308 15.6 100290 89
2009-07-23 07:44:49 51°16.017 2°53.463 6.5 25 15.7 100290 86
2009-07-23 07:44:54 51°16.03 2°53.45 6.1 304 15.7 100290 86
2009-07-23 07:44:59 51°16.043 2°53.436 5.4 22 15.7 100290 87
2009-07-23 07:45:04 51°16.056 2°53.423 5.4 304 15.7 100290 87
2009-07-23 07:45:09 51°16.07 2°53.41 6.5 19 15.7 100290 86
2009-07-23 07:45:14 51°16.083 2°53.396 5.4 305 15.7 100290 86
2009-07-23 07:45:19 51°16.096 2°53.382 5.3 23 15.7 100290 88
2009-07-23 07:45:24 51°16.109 2°53.369 6.3 301 15.7 100290 88
2009-07-23 07:45:29 51°16.123 2°53.355 5.3 21 15.7 100290 89
2009-07-23 07:45:34 51°16.136 2°53.342 6.4 303 15.7 100290 89
2009-07-23 07:45:39 51°16.149 2°53.328 4.9 20 15.7 100290 88
2009-07-23 07:45:44 51°16.162 2°53.315 6 309 15.7 100290 88
2009-07-23 07:45:49 51°16.175 2°53.301 6.3 22 15.7 100290 87
2009-07-23 07:45:54 51°16.189 2°53.288 5.1 309 15.7 100290 87
2009-07-23 07:45:59 51°16.202 2°53.275 6.3 24 15.7 100300 89
2009-07-23 07:46:04 51°16.215 2°53.262 5.3 305 15.7 100300 89
2009-07-23 07:46:09 51°16.229 2°53.249 5.3 28 15.7 100300 89
2009-07-23 07:46:14 51°16.242 2°53.235 5.3 301 15.7 100300 89
2009-07-23 07:46:19 51°16.255 2°53.223 6.1 21 15.7 100290 87
2009-07-23 07:46:24 51°16.269 2°53.209 5 285 15.7 100290 87
2009-07-23 07:46:29 51°16.282 2°53.196 5.9 20 15.7 100300 88
2009-07-23 07:46:34 51°16.295 2°53.183 6.6 309 15.7 100300 88
2009-07-23 07:46:39 51°16.308 2°53.17 5.6 27 15.7 100290 86
2009-07-23 07:46:44 51°16.322 2°53.157 6.5 308 15.7 100290 86
2009-07-23 07:46:49 51°16.335 2°53.144 5.2 23 15.7 100300 86
2009-07-23 07:46:54 51°16.349 2°53.131 6.1 305 15.7 100300 86
2009-07-23 07:46:59 51°16.362 2°53.119 5.9 23 15.8 100290 87
2009-07-23 07:47:04 51°16.376 2°53.106 6.6 303 15.8 100290 87
2009-07-23 07:47:09 51°16.389 2°53.093 5.3 22 15.8 100290 87
2009-07-23 07:47:14 51°16.402 2°53.08 6.6 308 15.8 100290 87
2009-07-23 07:47:19 51°16.416 2°53.067 6.5 21 15.8 100290 87
2009-07-23 07:47:24 51°16.429 2°53.055 6.5 309 15.8 100290 87
2009-07-23 07:47:29 51°16.443 2°53.043 6.3 21 15.8 100290 88
2009-07-23 07:47:34 51°16.457 2°53.031 5.6 309 15.8 100290 88
2009-07-23 07:47:39 51°16.47 2°53.018 6.5 21 15.8 100290 85
2009-07-23 07:47:44 51°16.484 2°53.006 6.4 308 15.8 100290 85
2009-07-23 07:47:49 51°16.497 2°52.994 6.4 25 15.8 100290 88
2009-07-23 07:47:54 51°16.511 2°52.982 5.9 308 15.8 100290 88
2009-07-23 07:47:59 51°16.524 2°52.969 5.1 21 15.8 100300 88
2009-07-23 07:48:04 51°16.538 2°52.956 6.6 309 15.8 100300 88
2009-07-23 07:48:09 51°16.551 2°52.944 6.8 25 15.8 100290 88
2009-07-23 07:48:14 51°16.565 2°52.931 5.6 307 15.8 100290 88
2009-07-23 07:48:19 51°16.578 2°52.92 5.8 22 15.8 100290 87
2009-07-23 07:48:24 51°16.592 2°52.907 6.5 286 15.8 100290 87
2009-07-23 07:48:29 51°16.605 2°52.895 7.5 24 15.8 100290 86
2009-07-23 07:48:34 51°16.619 2°52.883 6 303 15.8 100290 86
2009-07-23 07:48:39 51°16.632 2°52.87 6.6 243 15.8 100290 87
2009-07-23 07:48:44 51°16.645 2°52.858 7 305 15.8 100290 87
2009-07-23 07:48:49 51°16.659 2°52.845 6.6 20 15.8 100290 87
2009-07-23 07:48:54 51°16.672 2°52.833 6.3 304 15.8 100290 87
2009-07-23 07:48:59 51°16.685 2°52.821 5.9 28 15.8 100290 83
2009-07-23 07:49:04 51°16.698 2°52.808 5.4 305 15.8 100290 83
2009-07-23 07:49:09 51°16.712 2°52.796 7 28 15.8 100280 88
2009-07-23 07:49:14 51°16.725 2°52.784 6.5 303 15.8 100280 88
2009-07-23 07:49:19 51°16.738 2°52.771 5.8 21 15.8 100290 87
2009-07-23 07:49:24 51°16.751 2°52.759 5.1 308 15.8 100290 87
2009-07-23 07:49:29 51°16.764 2°52.746 5.7 28 15.8 100290 85
2009-07-23 07:49:34 51°16.777 2°52.735 7.2 305 15.8 100290 85
2009-07-23 07:49:38 51°16.787 2°52.725 7.1 22 15.8 100280 87
2009-07-23 07:49:44 51°16.803 2°52.71 5.8 304 15.8 100280 87
2009-07-23 07:49:49 51°16.816 2°52.698 5.8 244 15.8 100290 88
2009-07-23 07:49:54 51°16.829 2°52.686 6.7 309 15.8 100290 88
2009-07-23 07:49:59 51°16.842 2°52.674 6.4 21 15.8 100290 86
2009-07-23 07:50:04 51°16.855 2°52.662 5.2 302 15.8 100290 86
2009-07-23 07:50:09 51°16.868 2°52.65 5.9 242 15.8 100280 87
2009-07-23 07:50:14 51°16.881 2°52.639 6.5 301 15.8 100280 87
2009-07-23 07:50:19 51°16.894 2°52.627 6.1 25 15.8 100280 87
2009-07-23 07:50:24 51°16.907 2°52.615 5 278 15.8 100280 87
2009-07-23 07:50:29 51°16.919 2°52.603 5.2 23 15.8 100290 87
2009-07-23 07:50:34 51°16.932 2°52.59 5 308 15.8 100290 87
2009-07-23 07:50:39 51°16.945 2°52.578 6.2 20 15.8 100280 88
2009-07-23 07:50:44 51°16.958 2°52.566 5.2 304 15.8 100280 88
2009-07-23 07:50:49 51°16.971 2°52.553 6.4 21 15.8 100280 87
2009-07-23 07:50:54 51°16.984 2°52.541 5.4 303 15.8 100280 87
2009-07-23 07:50:59 51°16.997 2°52.529 5.4 24 15.8 100280 87
2009-07-23 07:51:04 51°17.01 2°52.517 5.2 308 15.8 100280 87
2009-07-23 07:51:09 51°17.023 2°52.505 6.4 28 15.8 100280 87
2009-07-23 07:51:14 51°17.036 2°52.493 5 305 15.8 100280 87
2009-07-23 07:51:19 51°17.048 2°52.481 6.5 19 15.8 100280 86
2009-07-23 07:51:24 51°17.061 2°52.469 5.5 307 15.8 100280 86
2009-07-23 07:51:29 51°17.074 2°52.457 5.7 21 15.8 100280 88
2009-07-23 07:51:34 51°17.087 2°52.445 6.3 305 15.8 100280 88
2009-07-23 07:51:39 51°17.1 2°52.433 6.4 25 15.8 100280 88
2009-07-23 07:51:44 51°17.113 2°52.421 6.1 309 15.8 100280 88
2009-07-23 07:51:49 51°17.126 2°52.41 5.7 245 15.8 100280 87
2009-07-23 07:51:54 51°17.139 2°52.398 6.4 301 15.8 100280 87
2009-07-23 07:51:59 51°17.152 2°52.387 7 23 15.8 100280 88
2009-07-23 07:52:04 51°17.165 2°52.376 6.4 302 15.8 100280 88
2009-07-23 07:52:09 51°17.179 2°52.365 5.7 21 15.8 100270 86
2009-07-23 07:52:14 51°17.192 2°52.354 6 304 15.8 100270 86
2009-07-23 07:52:19 51°17.205 2°52.343 7.1 23 15.8 100280 87
2009-07-23 07:52:24 51°17.218 2°52.332 5.7 286 15.8 100280 87
2009-07-23 07:52:29 51°17.232 2°52.322 6.2 27 15.9 100270 86
2009-07-23 07:52:34 51°17.245 2°52.311 5 304 15.9 100270 86
2009-07-23 07:52:39 51°17.258 2°52.299 6.2 21 15.9 100280 87
2009-07-23 07:52:44 51°17.272 2°52.289 6.9 306 15.9 100280 87
2009-07-23 07:52:49 51°17.285 2°52.278 5.3 24 15.9 100270 85
2009-07-23 07:52:54 51°17.298 2°52.267 6.2 302 15.9 100270 85
2009-07-23 07:52:59 51°17.312 2°52.256 6.9 25 15.9 100270 72
2009-07-23 07:53:04 51°17.325 2°52.245 6.4 306 15.9 100270 72
2009-07-23 07:53:09 51°17.338 2°52.234 5.3 27 15.8 100270 89
2009-07-23 07:53:14 51°17.352 2°52.223 5.1 304 15.8 100270 89
2009-07-23 07:53:19 51°17.365 2°52.213 6.2 25 15.8 100270 88
2009-07-23 07:53:24 51°17.378 2°52.202 5.7 304 15.8 100270 88
2009-07-23 07:53:29 51°17.392 2°52.192 6.4 20 15.9 100270 87
2009-07-23 07:53:34 51°17.405 2°52.182 6 303 15.9 100270 87
2009-07-23 07:53:39 51°17.419 2°52.171 5.1 25 15.8 100270 88
2009-07-23 07:53:44 51°17.432 2°52.16 5.5 307 15.8 100270 88
2009-07-23 07:53:49 51°17.445 2°52.149 6.1 20 15.8 100280 88
2009-07-23 07:53:54 51°17.459 2°52.138 5.8 303 15.8 100280 88
2009-07-23 07:53:59 51°17.472 2°52.127 4.4 27 15.8 100270 89
2009-07-23 07:54:04 51°17.485 2°52.116 7.3 303 15.8 100270 89
2009-07-23 07:54:09 51°17.498 2°52.105 6.4 27 15.8 100270 89
2009-07-23 07:54:14 51°17.512 2°52.094 6 305 15.8 100270 89
2009-07-23 07:54:19 51°17.525 2°52.083 7.6 27 15.9 100270 89
2009-07-23 07:54:24 51°17.538 2°52.073 6.9 283 15.9 100270 89
2009-07-23 07:54:29 51°17.551 2°52.062 7 21 15.9 100270 89
2009-07-23 07:54:34 51°17.565 2°52.05 7.4 307 15.9 100270 89
2009-07-23 07:54:39 51°17.578 2°52.039 5.9 27 15.9 100270 88
2009-07-23 07:54:44 51°17.591 2°52.028 6.4 308 15.9 100270 88
2009-07-23 07:54:49 51°17.604 2°52.017 6.4 21 15.9 100270 90
2009-07-23 07:54:54 51°17.617 2°52.006 7.1 307 15.9 100270 90
2009-07-23 07:54:59 51°17.63 2°51.995 5.8 22 15.9 100270 87
2009-07-23 07:55:04 51°17.643 2°51.984 6.8 303 15.9 100270 87
2009-07-23 07:55:09 51°17.656 2°51.973 7.2 22 15.9 100270 90
2009-07-23 07:55:14 51°17.669 2°51.962 7.7 301 15.9 100270 90
2009-07-23 07:55:19 51°17.682 2°51.951 8 25 15.8 100270 86
2009-07-23 07:55:24 51°17.695 2°51.94 7.6 303 15.8 100270 86
2009-07-23 07:55:29 51°17.708 2°51.929 6.6 28 15.8 100280 86
2009-07-23 07:55:34 51°17.721 2°51.918 6.4 307 15.8 100280 86
2009-07-23 07:55:39 51°17.735 2°51.907 6.5 23 15.8 100280 86
2009-07-23 07:55:44 51°17.748 2°51.896 6.7 305 15.8 100280 86
2009-07-23 07:55:49 51°17.761 2°51.885 7.8 25 15.9 100270 87
2009-07-23 07:55:54 51°17.774 2°51.874 6.3 307 15.9 100270 87
2009-07-23 07:55:59 51°17.787 2°51.863 6.2 25 15.8 100280 90
2009-07-23 07:56:04 51°17.8 2°51.852 6.6 305 15.8 100280 90
2009-07-23 07:56:09 51°17.813 2°51.841 6.5 20 15.8 100280 88
2009-07-23 07:56:14 51°17.826 2°51.83 6.8 307 15.8 100280 88
2009-07-23 07:56:19 51°17.839 2°51.819 6.7 27 15.8 100270 86
2009-07-23 07:56:24 51°17.853 2°51.808 7.5 286 15.8 100270 86
2009-07-23 07:56:29 51°17.866 2°51.797 7.6 22 15.8 100270 86
2009-07-23 07:56:34 51°17.879 2°51.786 7.3 309 15.8 100270 86
2009-07-23 07:56:39 51°17.892 2°51.775 7.4 28 15.8 100270 88
2009-07-23 07:56:44 51°17.905 2°51.764 8.3 306 15.8 100270 88
2009-07-23 07:56:49 51°17.918 2°51.753 8.5 25 15.8 100270 89
2009-07-23 07:56:54 51°17.932 2°51.741 8.2 307 15.8 100270 89
2009-07-23 07:56:59 51°17.945 2°51.73 7.8 27 15.8 100270 86
2009-07-23 07:57:04 51°17.958 2°51.719 7.6 306 15.8 100270 86
2009-07-23 07:57:09 51°17.971 2°51.707 6.5 21 15.8 100270 87
2009-07-23 07:57:14 51°17.984 2°51.696 7.1 302 15.8 100270 87
2009-07-23 07:57:19 51°17.997 2°51.685 5.9 22 15.8 100270 70
2009-07-23 07:57:24 51°18.011 2°51.674 6.6 310 15.8 100270 70
2009-07-23 07:57:29 51°18.024 2°51.663 7.4 26 15.8 100270 88
2009-07-23 07:57:34 51°18.037 2°51.652 5.9 303 15.8 100270 88
2009-07-23 07:57:39 51°18.051 2°51.642 7.1 21 15.8 100270 86
2009-07-23 07:57:44 51°18.064 2°51.631 6.8 303 15.8 100270 86
2009-07-23 07:57:49 51°18.078 2°51.621 6.1 25 15.8 100270 88
2009-07-23 07:57:54 51°18.091 2°51.61 6.9 304 15.8 100270 88
2009-07-23 07:57:59 51°18.105 2°51.599 5.6 23 15.8 100270 85
2009-07-23 07:58:04 51°18.119 2°51.589 6.6 309 15.8 100270 85
2009-07-23 07:58:09 51°18.132 2°51.578 6 25 15.8 100270 89
2009-07-23 07:58:14 51°18.146 2°51.567 6.4 302 15.8 100270 89
2009-07-23 07:58:19 51°18.159 2°51.556 6.5 29 15.8 100270 88
2009-07-23 07:58:24 51°18.173 2°51.545 6.7 282 15.8 100270 88
2009-07-23 07:58:29 51°18.186 2°51.534 6.6 29 15.8 100270 88
2009-07-23 07:58:34 51°18.2 2°51.522 7.5 303 15.8 100270 88
2009-07-23 07:58:39 51°18.213 2°51.511 6.1 21 15.8 100270 88
2009-07-23 07:58:44 51°18.226 2°51.5 7.7 302 15.8 100270 88
2009-07-23 07:58:49 51°18.24 2°51.488 7.5 24 15.8 100280 70
2009-07-23 07:58:54 51°18.253 2°51.477 6.1 305 15.8 100280 70
2009-07-23 07:58:59 51°18.267 2°51.467 7.3 25 15.8 100270 91
2009-07-23 07:59:04 51°18.28 2°51.455 7.1 303 15.8 100270 91
2009-07-23 07:59:09 51°18.294 2°51.444 5.6 26 15.8 100270 92
2009-07-23 07:59:14 51°18.307 2°51.433 7 305 15.8 100270 92
2009-07-23 07:59:19 51°18.321 2°51.421 6.1 21 15.8 100270 91
2009-07-23 07:59:24 51°18.334 2°51.41 6.2 279 15.8 100270 91
2009-07-23 07:59:29 51°18.348 2°51.399 6.2 243 15.8 100280 89
2009-07-23 07:59:34 51°18.361 2°51.388 7.3 310 15.8 100280 89
2009-07-23 07:59:39 51°18.374 2°51.376 7.1 244 15.8 100270 89
2009-07-23 07:59:44 51°18.388 2°51.365 7.2 306 15.8 100270 89
2009-07-23 07:59:49 51°18.401 2°51.353 7.9 28 15.8 100280 87
2009-07-23 07:59:54 51°18.415 2°51.342 6.9 303 15.8 100280 87
2009-07-23 07:59:59 51°18.428 2°51.33 8.2 25 15.8 100270 88
2009-07-23 08:00:04 51°18.441 2°51.318 8.2 307 15.8 100270 88
2009-07-23 08:00:09 51°18.455 2°51.307 7.7 21 15.8 100270 86
2009-07-23 08:00:14 51°18.468 2°51.296 8.1 311 15.8 100270 86
2009-07-23 08:00:19 51°18.482 2°51.284 7.8 24 15.9 100270 80
2009-07-23 08:00:24 51°18.495 2°51.272 7.2 279 15.9 100270 80
2009-07-23 08:00:29 51°18.508 2°51.26 6.1 25 15.8 100270 90
2009-07-23 08:00:34 51°18.521 2°51.247 6.6 305 15.8 100270 90
2009-07-23 08:00:39 51°18.534 2°51.236 5.9 24 15.8 100270 89
2009-07-23 08:00:44 51°18.548 2°51.224 6.5 302 15.8 100270 89
2009-07-23 08:00:49 51°18.561 2°51.212 7.1 27 15.8 100270 87
2009-07-23 08:00:54 51°18.574 2°51.2 5.8 307 15.8 100270 87
2009-07-23 08:00:59 51°18.588 2°51.189 7.8 27 15.8 100280 84
2009-07-23 08:01:04 51°18.601 2°51.177 6 305 15.8 100280 84
2009-07-23 08:01:09 51°18.614 2°51.165 6.4 26 15.8 100270 85
2009-07-23 08:01:14 51°18.628 2°51.153 6.8 304 15.8 100270 85
2009-07-23 08:01:19 51°18.641 2°51.142 7.4 26 15.8 100280 87
2009-07-23 08:01:24 51°18.654 2°51.13 6.6 307 15.8 100280 87
2009-07-23 08:01:29 51°18.668 2°51.118 7.8 25 15.8 100260 89
2009-07-23 08:01:34 51°18.681 2°51.106 7.9 303 15.8 100260 89
2009-07-23 08:01:39 51°18.694 2°51.093 6.2 25 15.8 100270 87
2009-07-23 08:01:44 51°18.707 2°51.081 9.2 303 15.8 100270 87
2009-07-23 08:01:49 51°18.72 2°51.068 8.2 21 15.8 100270 88
2009-07-23 08:01:54 51°18.733 2°51.055 7.3 308 15.8 100270 88
2009-07-23 08:01:59 51°18.746 2°51.041 7.2 25 15.9 100260 86
2009-07-23 08:02:04 51°18.759 2°51.028 8.6 305 15.9 100260 86
2009-07-23 08:02:09 51°18.772 2°51.014 7.2 27 15.9 100270 88
2009-07-23 08:02:14 51°18.785 2°51.001 7.6 306 15.9 100270 88
2009-07-23 08:02:19 51°18.798 2°50.987 7 24 15.9 100260 87
2009-07-23 08:02:24 51°18.811 2°50.974 8.3 308 15.9 100260 87
2009-07-23 08:02:29 51°18.823 2°50.96 8.1 19 15.9 100260 88
2009-07-23 08:02:34 51°18.836 2°50.946 8.1 310 15.9 100260 88
2009-07-23 08:02:39 51°18.849 2°50.933 8.2 21 15.9 100270 87
2009-07-23 08:02:44 51°18.862 2°50.918 6.8 306 15.9 100270 87
2009-07-23 08:02:49 51°18.875 2°50.905 7.8 21 15.9 100260 87
2009-07-23 08:02:54 51°18.888 2°50.891 8.4 303 15.9 100260 87
2009-07-23 08:02:59 51°18.9 2°50.877 8.5 24 15.9 100270 88
2009-07-23 08:03:04 51°18.913 2°50.862 8.6 303 15.9 100270 88
2009-07-23 08:03:09 51°18.926 2°50.848 8 22 15.9 100270 88
2009-07-23 08:03:14 51°18.938 2°50.834 6.6 302 15.9 100270 88
2009-07-23 08:03:19 51°18.951 2°50.82 6.4 25 15.9 100270 86
2009-07-23 08:03:24 51°18.963 2°50.805 7.4 302 15.9 100270 86
2009-07-23 08:03:29 51°18.976 2°50.791 7.2 26 15.9 100260 85
2009-07-23 08:03:34 51°18.988 2°50.776 7.1 306 15.9 100260 85
2009-07-23 08:03:39 51°19.001 2°50.762 7.7 20 16 100270 85
2009-07-23 08:03:44 51°19.014 2°50.749 8.1 304 16 100270 85
2009-07-23 08:03:49 51°19.027 2°50.734 9.3 25 15.9 100270 82
2009-07-23 08:03:54 51°19.039 2°50.721 9.5 304 15.9 100270 82
2009-07-23 08:03:59 51°19.052 2°50.707 8.7 20 16 100270 83
2009-07-23 08:04:04 51°19.065 2°50.693 10.6 308 16 100270 83
2009-07-23 08:04:09 51°19.078 2°50.679 11.3 24 16 100270 80
2009-07-23 08:04:14 51°19.09 2°50.665 8.2 305 16 100270 80
2009-07-23 08:04:19 51°19.103 2°50.651 9.6 27 16 100270 86
2009-07-23 08:04:24 51°19.116 2°50.637 9.4 279 16 100270 86
2009-07-23 08:04:29 51°19.129 2°50.624 10 22 16 100270 86
2009-07-23 08:04:34 51°19.142 2°50.61 8 305 16 100270 86
2009-07-23 08:04:39 51°19.155 2°50.597 9.9 27 16 100270 86
2009-07-23 08:04:44 51°19.167 2°50.584 7.9 303 16 100270 86
2009-07-23 08:04:49 51°19.18 2°50.57 8 26 16 100270 86
2009-07-23 08:04:54 51°19.193 2°50.556 8.4 305 16 100270 86
2009-07-23 08:04:59 51°19.206 2°50.543 7.7 21 16 100270 87
2009-07-23 08:05:04 51°19.219 2°50.529 9 305 16 100270 87
2009-07-23 08:05:09 51°19.232 2°50.516 7.8 22 16 100270 88
2009-07-23 08:05:14 51°19.245 2°50.503 7.7 309 16 100270 88
2009-07-23 08:05:19 51°19.258 2°50.489 9 19 16 100270 89
2009-07-23 08:05:24 51°19.271 2°50.476 8.8 301 16 100270 89
2009-07-23 08:05:29 51°19.284 2°50.462 9.5 24 16 100280 90
2009-07-23 08:05:34 51°19.297 2°50.448 8.4 304 16 100280 90
2009-07-23 08:05:39 51°19.31 2°50.435 10.2 21 16 100280 70
2009-07-23 08:05:44 51°19.323 2°50.421 10.1 302 16 100280 70
2009-07-23 08:05:49 51°19.335 2°50.407 8.5 25 16.1 100280 71
2009-07-23 08:05:54 51°19.348 2°50.393 8.5 307 16.1 100280 71
2009-07-23 08:05:59 51°19.361 2°50.38 10.1 23 16.1 100270 91
2009-07-23 08:06:04 51°19.374 2°50.366 8.5 304 16.1 100270 91
2009-07-23 08:06:09 51°19.387 2°50.353 10 21 16.1 100280 93
2009-07-23 08:06:14 51°19.401 2°50.339 8.9 304 16.1 100280 93
2009-07-23 08:06:19 51°19.414 2°50.326 8.2 27 16.1 100270 92
2009-07-23 08:06:24 51°19.427 2°50.312 8.8 283 16.1 100270 92
2009-07-23 08:06:29 51°19.44 2°50.299 10.5 25 16.1 100270 92
2009-07-23 08:06:34 51°19.453 2°50.285 8.6 305 16.1 100270 92
2009-07-23 08:06:39 51°19.466 2°50.271 9.8 23 16.1 100270 91
2009-07-23 08:06:44 51°19.479 2°50.258 8.2 305 16.1 100270 91
2009-07-23 08:06:49 51°19.492 2°50.245 9.7 21 16.1 100270 90
2009-07-23 08:06:54 51°19.505 2°50.231 8.4 302 16.1 100270 90
2009-07-23 08:06:59 51°19.518 2°50.217 9.6 25 16.1 100270 90
2009-07-23 08:07:04 51°19.531 2°50.204 9.3 309 16.1 100270 90
2009-07-23 08:07:09 51°19.545 2°50.19 9.3 26 16.1 100270 90
2009-07-23 08:07:14 51°19.558 2°50.177 7.7 304 16.1 100270 90
2009-07-23 08:07:19 51°19.571 2°50.164 7.8 26 16.1 100270 90
2009-07-23 08:07:24 51°19.584 2°50.151 9.6 304 16.1 100270 90
2009-07-23 08:07:29 51°19.598 2°50.138 9.5 26 16.1 100270 89
2009-07-23 08:07:34 51°19.611 2°50.124 7.8 304 16.1 100270 89
2009-07-23 08:07:39 51°19.625 2°50.111 8.4 21 16.1 100270 70
2009-07-23 08:07:44 51°19.638 2°50.097 8.8 309 16.1 100270 70
2009-07-23 08:07:49 51°19.651 2°50.084 9.3 22 16.1 100270 87
2009-07-23 08:07:54 51°19.665 2°50.07 8.9 307 16.1 100270 87
2009-07-23 08:07:59 51°19.678 2°50.057 7.9 28 16.2 100270 86
2009-07-23 08:08:04 51°19.691 2°50.044 8.2 303 16.2 100270 86
2009-07-23 08:08:09 51°19.705 2°50.03 9.3 23 16.2 100270 89
2009-07-23 08:08:14 51°19.718 2°50.017 10.5 307 16.2 100270 89
2009-07-23 08:08:19 51°19.731 2°50.003 8.8 23 16.2 100260 88
2009-07-23 08:08:24 51°19.745 2°49.99 8.9 283 16.2 100260 88
2009-07-23 08:08:29 51°19.758 2°49.977 9.9 26 16.2 100270 88
2009-07-23 08:08:34 51°19.771 2°49.964 9.9 304 16.2 100270 88
2009-07-23 08:08:39 51°19.785 2°49.95 10.7 22 16.2 100270 87
2009-07-23 08:08:44 51°19.798 2°49.937 8.5 309 16.2 100270 87
2009-07-23 08:08:49 51°19.811 2°49.924 7.7 24 16.2 100260 89
2009-07-23 08:08:54 51°19.824 2°49.909 8 304 16.2 100260 89
2009-07-23 08:08:59 51°19.838 2°49.896 7.9 20 16.2 100260 89
2009-07-23 08:09:04 51°19.851 2°49.883 8.1 302 16.2 100260 89
2009-07-23 08:09:09 51°19.864 2°49.869 9.8 28 16.2 100260 88
2009-07-23 08:09:14 51°19.877 2°49.855 9.1 306 16.2 100260 88
2009-07-23 08:09:19 51°19.89 2°49.841 9.3 26 16.2 100260 87
2009-07-23 08:09:24 51°19.903 2°49.827 10.6 310 16.2 100260 87
2009-07-23 08:09:29 51°19.916 2°49.812 8.6 20 16.2 100260 86
2009-07-23 08:09:34 51°19.929 2°49.797 9.1 305 16.2 100260 86
2009-07-23 08:09:39 51°19.941 2°49.782 8.5 26 16.2 100260 86
2009-07-23 08:09:44 51°19.954 2°49.767 9.7 304 16.2 100260 86
2009-07-23 08:09:49 51°19.967 2°49.752 7.9 23 16.3 100260 87
2009-07-23 08:09:54 51°19.98 2°49.737 7.8 309 16.3 100260 87
2009-07-23 08:09:59 51°19.992 2°49.722 8.2 25 16.2 100260 85
2009-07-23 08:10:04 51°20.005 2°49.706 9.8 302 16.2 100260 85
2009-07-23 08:10:09 51°20.017 2°49.69 7.9 22 16.3 100260 86
2009-07-23 08:10:14 51°20.03 2°49.675 9.2 309 16.3 100260 86
2009-07-23 08:10:19 51°20.043 2°49.66 9 25 16.2 100260 87
2009-07-23 08:10:24 51°20.055 2°49.644 10 278 16.2 100260 87
2009-07-23 08:10:29 51°20.068 2°49.629 9.4 27 16.3 100260 86
2009-07-23 08:10:34 51°20.08 2°49.614 8.9 308 16.3 100260 86
2009-07-23 08:10:39 51°20.093 2°49.598 9.4 25 16.3 100260 86
2009-07-23 08:10:44 51°20.106 2°49.583 8.9 309 16.3 100260 86
2009-07-23 08:10:49 51°20.118 2°49.568 7.9 27 16.3 100260 88
2009-07-23 08:10:54 51°20.131 2°49.552 4.4 308 16.3 100260 88
2009-07-23 08:10:59 51°20.143 2°49.536 9.4 24 16.3 100260 86
2009-07-23 08:11:04 51°20.156 2°49.521 8.7 306 16.3 100260 86
2009-07-23 08:11:09 51°20.168 2°49.505 10.4 24 16.3 100260 86
2009-07-23 08:11:14 51°20.181 2°49.489 11.4 306 16.3 100260 86
2009-07-23 08:11:19 51°20.193 2°49.473 9.8 25 16.3 100260 87
2009-07-23 08:11:24 51°20.205 2°49.457 11.6 281 16.3 100260 87
2009-07-23 08:11:29 51°20.218 2°49.441 9 27 16.3 100260 87
2009-07-23 08:11:34 51°20.23 2°49.425 9.3 306 16.3 100260 87
2009-07-23 08:11:39 51°20.243 2°49.41 8.7 24 16.3 100270 87
2009-07-23 08:11:44 51°20.255 2°49.394 8.8 305 16.3 100270 87
2009-07-23 08:11:49 51°20.268 2°49.378 8.9 22 16.3 100260 87
2009-07-23 08:11:54 51°20.28 2°49.362 10.1 307 16.3 100260 87
2009-07-23 08:11:59 51°20.292 2°49.346 10.8 27 16.3 100260 85
2009-07-23 08:12:04 51°20.305 2°49.33 9.3 306 16.3 100260 85
2009-07-23 08:12:09 51°20.317 2°49.314 10.6 28 16.3 100260 84
2009-07-23 08:12:14 51°20.33 2°49.298 11 301 16.3 100260 84
2009-07-23 08:12:19 51°20.342 2°49.281 11.1 23 16.3 100260 85
2009-07-23 08:12:24 51°20.354 2°49.265 10.5 310 16.3 100260 85
2009-07-23 08:12:29 51°20.367 2°49.249 9.3 20 16.3 100260 86
2009-07-23 08:12:34 51°20.379 2°49.233 10.1 304 16.3 100260 86
2009-07-23 08:12:39 51°20.391 2°49.217 10.5 22 16.3 100260 81
2009-07-23 08:12:44 51°20.403 2°49.201 9.9 303 16.3 100260 81
2009-07-23 08:12:49 51°20.416 2°49.185 8.7 21 16.3 100260 84
2009-07-23 08:12:54 51°20.428 2°49.169 8.1 306 16.3 100260 84
2009-07-23 08:12:59 51°20.441 2°49.154 8.3 28 16.3 100250 69
2009-07-23 08:13:04 51°20.453 2°49.138 8.6 304 16.3 100250 69
2009-07-23 08:13:09 51°20.466 2°49.123 8.5 22 16.3 100260 87
2009-07-23 08:13:14 51°20.478 2°49.107 8.2 304 16.3 100260 87
2009-07-23 08:13:19 51°20.491 2°49.091 9.2 24 16.3 100260 88
2009-07-23 08:13:24 51°20.503 2°49.075 10 281 16.3 100260 88
2009-07-23 08:13:29 51°20.516 2°49.059 8.6 26 16.3 100260 86
2009-07-23 08:13:34 51°20.528 2°49.044 8.5 301 16.3 100260 86
2009-07-23 08:13:39 51°20.541 2°49.028 9.1 25 16.3 100260 86
2009-07-23 08:13:44 51°20.553 2°49.012 9 307 16.3 100260 86
2009-07-23 08:13:49 51°20.566 2°48.997 10 25 16.4 100260 88
2009-07-23 08:13:54 51°20.579 2°48.982 10.9 309 16.4 100260 88
2009-07-23 08:13:59 51°20.591 2°48.966 8.7 26 16.4 100260 87
2009-07-23 08:14:04 51°20.604 2°48.951 9.6 305 16.4 100260 87
2009-07-23 08:14:09 51°20.616 2°48.935 9.7 26 16.4 100250 86
2009-07-23 08:14:14 51°20.629 2°48.92 8.9 306 16.4 100250 86
2009-07-23 08:14:19 51°20.641 2°48.904 10.4 25 16.4 100250 85
2009-07-23 08:14:24 51°20.654 2°48.889 10.6 310 16.4 100250 85
2009-07-23 08:14:29 51°20.666 2°48.873 8.9 21 16.4 100260 87
2009-07-23 08:14:34 51°20.679 2°48.857 10.3 301 16.4 100260 87
2009-07-23 08:14:39 51°20.691 2°48.842 9.6 23 16.4 100260 87
2009-07-23 08:14:44 51°20.703 2°48.826 10.7 309 16.4 100260 87
2009-07-23 08:14:49 51°20.716 2°48.81 9.5 24 16.4 100260 86
2009-07-23 08:14:54 51°20.729 2°48.795 9.5 307 16.4 100260 86
2009-07-23 08:14:59 51°20.741 2°48.779 10.5 22 16.4 100260 87
2009-07-23 08:15:04 51°20.754 2°48.764 8.4 304 16.4 100260 87
2009-07-23 08:15:09 51°20.766 2°48.748 9.4 21 16.4 100260 87
2009-07-23 08:15:14 51°20.779 2°48.732 9 309 16.4 100260 87
2009-07-23 08:15:19 51°20.791 2°48.716 8.4 244 16.4 100250 86
2009-07-23 08:15:24 51°20.804 2°48.701 8.9 280 16.4 100250 86
2009-07-23 08:15:29 51°20.816 2°48.685 8.7 27 16.4 100260 84
2009-07-23 08:15:34 51°20.829 2°48.67 8.3 303 16.4 100260 84
2009-07-23 08:15:39 51°20.841 2°48.654 9.4 25 16.4 100260 84
2009-07-23 08:15:44 51°20.854 2°48.639 9.1 307 16.4 100260 84
2009-07-23 08:15:49 51°20.866 2°48.622 9 24 16.4 100270 69
2009-07-23 08:15:54 51°20.879 2°48.607 8.6 308 16.4 100270 69
2009-07-23 08:15:59 51°20.891 2°48.591 9.3 20 16.5 100260 86
2009-07-23 08:16:04 51°20.904 2°48.575 9.4 304 16.5 100260 86
2009-07-23 08:16:09 51°20.916 2°48.56 8.4 25 16.5 100260 88
2009-07-23 08:16:14 51°20.929 2°48.544 9.8 304 16.5 100260 88
2009-07-23 08:16:19 51°20.941 2°48.528 7.9 25 16.5 100260 87
2009-07-23 08:16:24 51°20.954 2°48.512 9 309 16.5 100260 87
2009-07-23 08:16:29 51°20.966 2°48.496 8.9 24 16.5 100260 86
2009-07-23 08:16:34 51°20.979 2°48.48 8.9 303 16.5 100260 86
2009-07-23 08:16:39 51°20.991 2°48.465 8.3 29 16.5 100260 87
2009-07-23 08:16:44 51°21.004 2°48.449 7.7 303 16.5 100260 87
2009-07-23 08:16:49 51°21.016 2°48.434 8.4 25 16.5 100260 87
2009-07-23 08:16:54 51°21.029 2°48.418 8.9 307 16.5 100260 87
2009-07-23 08:16:59 51°21.042 2°48.403 8.6 21 16.5 100260 87
2009-07-23 08:17:04 51°21.054 2°48.388 8.6 302 16.5 100260 87
2009-07-23 08:17:09 51°21.067 2°48.373 10.1 20 16.6 100260 86
2009-07-23 08:17:14 51°21.08 2°48.358 10.2 307 16.6 100260 86
2009-07-23 08:17:19 51°21.093 2°48.343 10 27 16.6 100250 87
2009-07-23 08:17:24 51°21.105 2°48.328 10 281 16.6 100250 87
2009-07-23 08:17:29 51°21.118 2°48.313 9.7 25 16.6 100260 87
2009-07-23 08:17:34 51°21.131 2°48.298 11.1 308 16.6 100260 87
2009-07-23 08:17:39 51°21.144 2°48.283 10.5 23 16.6 100250 85
2009-07-23 08:17:44 51°21.157 2°48.268 8.7 310 16.6 100250 85
2009-07-23 08:17:49 51°21.169 2°48.253 8.6 21 16.6 100250 86
2009-07-23 08:17:54 51°21.182 2°48.237 7.9 307 16.6 100250 86
2009-07-23 08:17:59 51°21.195 2°48.222 8.6 20 16.6 100250 85
2009-07-23 08:18:04 51°21.207 2°48.206 8.3 301 16.6 100250 85
2009-07-23 08:18:09 51°21.22 2°48.191 8.5 25 16.6 100250 85
2009-07-23 08:18:14 51°21.233 2°48.175 9.1 303 16.6 100250 85
2009-07-23 08:18:19 51°21.246 2°48.16 10.3 28 16.6 100250 87
2009-07-23 08:18:24 51°21.258 2°48.144 8.4 302 16.6 100250 87
2009-07-23 08:18:29 51°21.271 2°48.129 10.1 20 16.6 100260 86
2009-07-23 08:18:34 51°21.284 2°48.113 9.6 308 16.6 100260 86
2009-07-23 08:18:39 51°21.297 2°48.097 8.2 26 16.6 100250 87
2009-07-23 08:18:44 51°21.31 2°48.082 10.2 306 16.6 100250 87
2009-07-23 08:18:49 51°21.322 2°48.066 8.6 25 16.6 100250 87
2009-07-23 08:18:54 51°21.335 2°48.049 8.6 306 16.6 100250 87
2009-07-23 08:18:59 51°21.348 2°48.034 9.7 20 16.5 100250 88
2009-07-23 08:19:04 51°21.361 2°48.018 10 302 16.5 100250 88
2009-07-23 08:19:09 51°21.373 2°48.002 10.1 21 16.5 100250 87
2009-07-23 08:19:14 51°21.386 2°47.986 8.2 301 16.5 100250 87
2009-07-23 08:19:19 51°21.399 2°47.97 9.1 24 16.5 100250 88
2009-07-23 08:19:24 51°21.411 2°47.955 9.7 279 16.5 100250 88
2009-07-23 08:19:29 51°21.424 2°47.939 10.2 24 16.6 100250 86
2009-07-23 08:19:34 51°21.437 2°47.923 9.4 309 16.6 100250 86
2009-07-23 08:19:39 51°21.45 2°47.908 9.4 24 16.5 100250 87
2009-07-23 08:19:44 51°21.463 2°47.892 8 302 16.5 100250 87
2009-07-23 08:19:49 51°21.476 2°47.877 7.9 26 16.6 100250 88
2009-07-23 08:19:54 51°21.489 2°47.861 7.9 308 16.6 100250 88
2009-07-23 08:19:59 51°21.501 2°47.845 8.6 23 16.6 100260 87
2009-07-23 08:20:04 51°21.514 2°47.83 8.5 305 16.6 100260 87
2009-07-23 08:20:09 51°21.527 2°47.814 8.8 22 16.5 100250 86
2009-07-23 08:20:14 51°21.54 2°47.798 8.2 303 16.5 100250 86
2009-07-23 08:20:19 51°21.553 2°47.783 8.9 23 16.5 100250 87
2009-07-23 08:20:24 51°21.566 2°47.768 9 307 16.5 100250 87
2009-07-23 08:20:29 51°21.579 2°47.752 8.5 23 16.6 100260 83
2009-07-23 08:20:34 51°21.591 2°47.737 8.6 305 16.6 100260 83
2009-07-23 08:20:39 51°21.605 2°47.722 8.8 22 16.6 100250 86
2009-07-23 08:20:44 51°21.618 2°47.707 10.4 305 16.6 100250 86
2009-07-23 08:20:49 51°21.631 2°47.692 8.6 27 16.6 100250 84
2009-07-23 08:20:54 51°21.644 2°47.677 10 302 16.6 100250 84
2009-07-23 08:20:59 51°21.657 2°47.662 8.1 29 16.6 100250 80
2009-07-23 08:21:04 51°21.67 2°47.647 8.8 302 16.6 100250 80
2009-07-23 08:21:09 51°21.683 2°47.632 8.5 24 16.6 100250 86
2009-07-23 08:21:14 51°21.696 2°47.617 8.9 302 16.6 100250 86
2009-07-23 08:21:19 51°21.709 2°47.602 10.6 24 16.6 100250 87
2009-07-23 08:21:24 51°21.722 2°47.587 9.7 278 16.6 100250 87
2009-07-23 08:21:29 51°21.735 2°47.572 8.1 25 16.5 100250 81
2009-07-23 08:21:34 51°21.748 2°47.556 9.3 306 16.5 100250 81
2009-07-23 08:21:39 51°21.761 2°47.541 8.4 22 16.5 100250 87
2009-07-23 08:21:44 51°21.774 2°47.527 9.8 307 16.5 100250 87
2009-07-23 08:21:49 51°21.787 2°47.511 10.1 26 16.5 100250 85
2009-07-23 08:21:54 51°21.8 2°47.497 9 305 16.5 100250 85
2009-07-23 08:21:59 51°21.813 2°47.481 8.8 25 16.6 100250 86
2009-07-23 08:22:04 51°21.826 2°47.467 9.7 309 16.6 100250 86
2009-07-23 08:22:09 51°21.839 2°47.452 7.9 24 16.6 100260 87
2009-07-23 08:22:14 51°21.852 2°47.437 8.3 301 16.6 100260 87
2009-07-23 08:22:19 51°21.865 2°47.422 9.1 29 16.6 100250 87
2009-07-23 08:22:24 51°21.878 2°47.407 8.9 303 16.6 100250 87
2009-07-23 08:22:29 51°21.891 2°47.392 8.9 25 16.6 100250 85
2009-07-23 08:22:34 51°21.904 2°47.377 9.6 304 16.6 100250 85
2009-07-23 08:22:39 51°21.917 2°47.363 9 21 16.6 100250 84
2009-07-23 08:22:44 51°21.93 2°47.348 8.7 307 16.6 100250 84
2009-07-23 08:22:49 51°21.943 2°47.333 10.3 26 16.5 100250 84
2009-07-23 08:22:54 51°21.955 2°47.317 8.8 304 16.5 100250 84
2009-07-23 08:22:59 51°21.968 2°47.303 8.4 21 16.5 100250 85
2009-07-23 08:23:04 51°21.981 2°47.288 9.4 307 16.5 100250 85
2009-07-23 08:23:09 51°21.994 2°47.273 10.3 22 16.5 100250 83
2009-07-23 08:23:14 51°22.007 2°47.258 8.7 302 16.5 100250 83
2009-07-23 08:23:19 51°22.02 2°47.243 10.4 27 16.5 100260 83
2009-07-23 08:23:24 51°22.033 2°47.228 10.4 282 16.5 100260 83
2009-07-23 08:23:29 51°22.046 2°47.214 9.6 25 16.5 100250 84
2009-07-23 08:23:34 51°22.059 2°47.199 10.6 305 16.5 100250 84
2009-07-23 08:23:39 51°22.072 2°47.185 10.3 26 16.5 100250 84
2009-07-23 08:23:44 51°22.084 2°47.17 9.7 302 16.5 100250 84
2009-07-23 08:23:49 51°22.097 2°47.155 8.6 23 16.5 100250 84
2009-07-23 08:23:54 51°22.11 2°47.14 9.8 307 16.5 100250 84
2009-07-23 08:23:59 51°22.122 2°47.125 10.3 27 16.4 100250 83
2009-07-23 08:24:04 51°22.135 2°47.11 8.8 308 16.4 100250 83
2009-07-23 08:24:09 51°22.148 2°47.095 10.2 21 16.4 100250 82
2009-07-23 08:24:14 51°22.16 2°47.08 10.5 305 16.4 100250 82
2009-07-23 08:24:19 51°22.173 2°47.066 9.8 21 16.4 100240 84
2009-07-23 08:24:24 51°22.186 2°47.051 8.8 306 16.4 100240 84
2009-07-23 08:24:29 51°22.198 2°47.035 8.7 21 16.4 100250 81
2009-07-23 08:24:34 51°22.211 2°47.02 10.7 302 16.4 100250 81
2009-07-23 08:24:39 51°22.223 2°47.005 8.3 24 16.5 100250 81
2009-07-23 08:24:44 51°22.236 2°46.991 10.6 301 16.5 100250 81
2009-07-23 08:24:49 51°22.248 2°46.975 10.3 25 16.5 100250 79
2009-07-23 08:24:54 51°22.261 2°46.96 11.1 308 16.5 100250 79
2009-07-23 08:24:59 51°22.273 2°46.944 9.7 27 16.5 100240 83
2009-07-23 08:25:04 51°22.285 2°46.928 10.7 306 16.5 100240 83
2009-07-23 08:25:09 51°22.297 2°46.913 10.6 26 16.5 100240 81
2009-07-23 08:25:14 51°22.309 2°46.897 8.6 303 16.5 100240 81
2009-07-23 08:25:19 51°22.322 2°46.883 10.7 27 16.5 100250 84
2009-07-23 08:25:24 51°22.334 2°46.868 10.8 280 16.5 100250 84
2009-07-23 08:25:29 51°22.346 2°46.853 10.5 27 16.6 100250 82
2009-07-23 08:25:34 51°22.359 2°46.838 10.3 305 16.6 100250 82
2009-07-23 08:25:39 51°22.371 2°46.824 11 22 16.6 100250 83
2009-07-23 08:25:44 51°22.383 2°46.809 9.3 306 16.6 100250 83
2009-07-23 08:25:49 51°22.396 2°46.794 10.9 27 16.6 100250 83
2009-07-23 08:25:54 51°22.408 2°46.779 9 305 16.6 100250 83
2009-07-23 08:25:59 51°22.42 2°46.764 9.3 22 16.6 100240 83
2009-07-23 08:26:04 51°22.433 2°46.749 10.6 308 16.6 100240 83
2009-07-23 08:26:09 51°22.445 2°46.733 11.3 20 16.6 100250 83
2009-07-23 08:26:14 51°22.458 2°46.718 9.8 306 16.6 100250 83
2009-07-23 08:26:19 51°22.47 2°46.703 10 22 16.6 100250 80
2009-07-23 08:26:24 51°22.482 2°46.687 9.6 302 16.6 100250 80
2009-07-23 08:26:29 51°22.495 2°46.672 11.1 21 16.6 100250 82
2009-07-23 08:26:34 51°22.507 2°46.657 9.5 305 16.6 100250 82
2009-07-23 08:26:39 51°22.519 2°46.641 9.8 28 16.6 100240 82
2009-07-23 08:26:44 51°22.532 2°46.626 9.1 304 16.6 100240 82
2009-07-23 08:26:49 51°22.544 2°46.611 10.2 27 16.6 100250 80
2009-07-23 08:26:54 51°22.557 2°46.596 8.8 305 16.6 100250 80
2009-07-23 08:26:59 51°22.569 2°46.581 9.2 25 16.6 100250 81
2009-07-23 08:27:04 51°22.582 2°46.566 11.3 309 16.6 100250 81
2009-07-23 08:27:09 51°22.595 2°46.552 10.8 19 16.6 100250 81
2009-07-23 08:27:14 51°22.607 2°46.537 8.9 304 16.6 100250 81
2009-07-23 08:27:19 51°22.619 2°46.522 8.7 27 16.6 100250 81
2009-07-23 08:27:24 51°22.632 2°46.507 10 278 16.6 100250 81
2009-07-23 08:27:29 51°22.644 2°46.491 10.2 28 16.6 100240 81
2009-07-23 08:27:34 51°22.656 2°46.476 10.1 304 16.6 100240 81
2009-07-23 08:27:39 51°22.669 2°46.461 9.7 22 16.7 100260 83
2009-07-23 08:27:44 51°22.681 2°46.446 10.9 306 16.7 100260 83
2009-07-23 08:27:49 51°22.694 2°46.431 9 25 16.7 100260 84
2009-07-23 08:27:54 51°22.706 2°46.416 10.5 308 16.7 100260 84
2009-07-23 08:27:59 51°22.719 2°46.401 9.3 24 16.7 100240 81
2009-07-23 08:28:04 51°22.731 2°46.386 11.3 302 16.7 100240 81
2009-07-23 08:28:09 51°22.744 2°46.371 8.7 27 16.7 100250 82
2009-07-23 08:28:14 51°22.756 2°46.356 10.3 306 16.7 100250 82
2009-07-23 08:28:19 51°22.769 2°46.341 10.7 20 16.7 100250 79
2009-07-23 08:28:24 51°22.781 2°46.326 11 309 16.7 100250 79
2009-07-23 08:28:29 51°22.794 2°46.311 9.4 24 16.7 100250 81
2009-07-23 08:28:34 51°22.807 2°46.296 10.7 303 16.7 100250 81
2009-07-23 08:28:39 51°22.819 2°46.281 9.5 21 16.7 100250 82
2009-07-23 08:28:44 51°22.832 2°46.266 9.5 307 16.7 100250 82
2009-07-23 08:28:49 51°22.844 2°46.251 9.9 25 16.7 100250 82
2009-07-23 08:28:54 51°22.857 2°46.236 10.9 307 16.7 100250 82
2009-07-23 08:28:59 51°22.869 2°46.221 10.2 20 16.7 100250 83
2009-07-23 08:29:04 51°22.882 2°46.206 9.7 310 16.7 100250 83
2009-07-23 08:29:09 51°22.894 2°46.191 8.5 23 16.7 100250 83
2009-07-23 08:29:14 51°22.907 2°46.177 10.1 307 16.7 100250 83
2009-07-23 08:29:19 51°22.919 2°46.161 11.2 22 16.7 100250 83
2009-07-23 08:29:24 51°22.932 2°46.147 9.8 279 16.7 100250 83
2009-07-23 08:29:29 51°22.945 2°46.132 10.4 24 16.7 100250 83
2009-07-23 08:29:34 51°22.958 2°46.117 9.9 305 16.7 100250 83
2009-07-23 08:29:39 51°22.97 2°46.102 9 28 16.7 100250 83
2009-07-23 08:29:44 51°22.983 2°46.087 10.4 308 16.7 100250 83
2009-07-23 08:29:49 51°22.995 2°46.071 9.9 22 16.7 100250 79
2009-07-23 08:29:54 51°23.008 2°46.056 9.8 310 16.7 100250 79
2009-07-23 08:29:58 51°23.018 2°46.044 8.9 24 16.7 100250 83
2009-07-23 08:30:04 51°23.033 2°46.026 12.2 308 16.7 100250 83
2009-07-23 08:30:09 51°23.045 2°46.011 9.8 26 16.7 100250 82
2009-07-23 08:30:14 51°23.058 2°45.996 10.3 306 16.7 100250 82
2009-07-23 08:30:19 51°23.07 2°45.981 9.2 27 16.7 100260 83
2009-07-23 08:30:24 51°23.083 2°45.966 9.3 303 16.7 100260 83
2009-07-23 08:30:29 51°23.095 2°45.951 11.3 27 16.7 100240 83
2009-07-23 08:30:34 51°23.107 2°45.936 9.5 306 16.7 100240 83
2009-07-23 08:30:39 51°23.12 2°45.921 9 23 16.7 100250 84
2009-07-23 08:30:44 51°23.132 2°45.905 9.8 302 16.7 100250 84
2009-07-23 08:30:49 51°23.144 2°45.889 10.9 26 16.7 100240 82
2009-07-23 08:30:54 51°23.157 2°45.874 10.5 307 16.7 100240 82
2009-07-23 08:30:58 51°23.166 2°45.861 11.2 20 16.7 100250 84
2009-07-23 08:31:04 51°23.181 2°45.844 10.2 306 16.7 100250 84
2009-07-23 08:31:09 51°23.193 2°45.828 9.6 20 16.7 100250 82
2009-07-23 08:31:14 51°23.206 2°45.813 10.7 304 16.7 100250 82
2009-07-23 08:31:18 51°23.216 2°45.801 10.2 27 16.8 100250 82
2009-07-23 08:31:22 51°23.226 2°45.788 10.9 284 16.8 100250 82
2009-07-23 08:31:29 51°23.243 2°45.766 11 29 16.7 100240 82
2009-07-23 08:31:34 51°23.255 2°45.75 11.4 308 16.7 100240 82
2009-07-23 08:31:38 51°23.265 2°45.738 12.1 25 16.7 100240 82
2009-07-23 08:31:43 51°23.277 2°45.722 9.8 305 16.7 100240 82
2009-07-23 08:31:49 51°23.292 2°45.704 10.8 24 16.7 100240 81
2009-07-23 08:31:54 51°23.304 2°45.689 11.5 310 16.7 100240 81
2009-07-23 08:31:59 51°23.316 2°45.674 11.8 23 16.7 100240 79
2009-07-23 08:32:04 51°23.329 2°45.659 11.8 305 16.7 100240 79
2009-07-23 08:32:08 51°23.339 2°45.647 11.6 21 16.7 100240 74
2009-07-23 08:32:14 51°23.353 2°45.628 12.1 302 16.7 100240 74
2009-07-23 08:32:19 51°23.366 2°45.614 13.1 29 16.7 100240 78
2009-07-23 08:32:24 51°23.378 2°45.598 13.3 286 16.7 100240 78
2009-07-23 08:32:28 51°23.388 2°45.586 11.2 26 16.7 100240 81
2009-07-23 08:32:34 51°23.402 2°45.567 11.4 304 16.7 100240 81
2009-07-23 08:32:39 51°23.415 2°45.552 13 25 16.8 100240 82
2009-07-23 08:32:43 51°23.424 2°45.54 13.8 305 16.8 100240 82
2009-07-23 08:32:49 51°23.439 2°45.521 13.4 26 16.7 100240 80
2009-07-23 08:32:54 51°23.451 2°45.506 13.6 307 16.7 100240 80
2009-07-23 08:32:58 51°23.461 2°45.493 12.2 22 16.7 100230 78
2009-07-23 08:33:04 51°23.475 2°45.474 13 304 16.7 100230 78
2009-07-23 08:33:09 51°23.487 2°45.459 13 26 16.7 100230 78
2009-07-23 08:33:14 51°23.5 2°45.444 13.4 306 16.7 100230 78
2009-07-23 08:33:18 51°23.51 2°45.431 13.3 24 16.7 100230 77
2009-07-23 08:33:24 51°23.524 2°45.413 11.5 305 16.7 100230 77
2009-07-23 08:33:29 51°23.536 2°45.398 11.2 25 16.7 100230 76
2009-07-23 08:33:34 51°23.549 2°45.382 12.9 301 16.7 100230 76
2009-07-23 08:33:39 51°23.561 2°45.367 12.8 24 16.6 100230 78
2009-07-23 08:33:43 51°23.571 2°45.354 12.2 301 16.6 100230 78
2009-07-23 08:33:49 51°23.586 2°45.336 12.3 28 16.6 100230 79
2009-07-23 08:33:54 51°23.598 2°45.321 12 305 16.6 100230 79
2009-07-23 08:33:59 51°23.61 2°45.305 12.8 25 16.6 100230 78
2009-07-23 08:34:04 51°23.622 2°45.29 10.7 302 16.6 100230 78
2009-07-23 08:34:08 51°23.632 2°45.277 11.4 24 16.6 100230 78
2009-07-23 08:34:14 51°23.646 2°45.258 12.4 307 16.6 100230 78
2009-07-23 08:34:19 51°23.658 2°45.243 12.5 27 16.6 100240 79
2009-07-23 08:34:24 51°23.671 2°45.227 10.5 302 16.6 100240 79
2009-07-23 08:34:29 51°23.683 2°45.212 10.7 28 16.6 100240 82
2009-07-23 08:34:34 51°23.695 2°45.196 12.3 307 16.6 100240 82
2009-07-23 08:34:39 51°23.707 2°45.181 12.8 22 16.6 100240 79
2009-07-23 08:34:44 51°23.719 2°45.165 12.5 301 16.6 100240 79
2009-07-23 08:34:49 51°23.732 2°45.15 12.8 27 16.6 100240 79
2009-07-23 08:34:54 51°23.744 2°45.135 12.1 303 16.6 100240 79
2009-07-23 08:34:59 51°23.756 2°45.119 12.2 24 16.5 100240 81
2009-07-23 08:35:04 51°23.768 2°45.103 9.8 309 16.5 100240 81
2009-07-23 08:35:09 51°23.78 2°45.087 11.5 22 16.5 100240 80
2009-07-23 08:35:14 51°23.793 2°45.072 12.6 304 16.5 100240 80
2009-07-23 08:35:19 51°23.805 2°45.056 11.6 23 16.5 100240 81
2009-07-23 08:35:24 51°23.817 2°45.042 11.9 303 16.5 100240 81
2009-07-23 08:35:29 51°23.829 2°45.026 9.7 26 16.5 100240 80
2009-07-23 08:35:34 51°23.842 2°45.011 12.1 307 16.5 100240 80
2009-07-23 08:35:38 51°23.852 2°44.999 10.3 21 16.5 100250 76
2009-07-23 08:35:44 51°23.867 2°44.983 9.4 304 16.5 100250 76
2009-07-23 08:35:49 51°23.88 2°44.973 8.9 27 16.5 100240 80
2009-07-23 08:35:54 51°23.893 2°44.966 9.3 305 16.5 100240 80
2009-07-23 08:35:58 51°23.904 2°44.962 8.6 25 16.5 100250 79
2009-07-23 08:36:04 51°23.92 2°44.96 6.9 306 16.5 100250 79
2009-07-23 08:36:09 51°23.933 2°44.961 6.1 247 16.5 100250 81
2009-07-23 08:36:14 51°23.946 2°44.964 6.3 303 16.5 100250 81
2009-07-23 08:36:18 51°23.956 2°44.967 6.3 248 16.4 100260 79
2009-07-23 08:36:24 51°23.971 2°44.972 6.2 279 16.4 100260 79
2009-07-23 08:36:28 51°23.981 2°44.977 7 22 16.4 100260 80
2009-07-23 08:36:34 51°23.997 2°44.982 5 309 16.4 100260 80
2009-07-23 08:36:39 51°24.009 2°44.991 5.6 245 16.4 100270 80
2009-07-23 08:36:44 51°24.022 2°44.995 5.7 309 16.4 100270 80
2009-07-23 08:36:49 51°24.035 2°45.004 6.5 245 16.4 100270 79
2009-07-23 08:36:54 51°24.048 2°45.01 4.9 309 16.4 100270 79
2009-07-23 08:36:59 51°24.06 2°45.019 6.5 22 16.4 100270 77
2009-07-23 08:37:04 51°24.073 2°45.026 6.6 307 16.4 100270 77
2009-07-23 08:37:09 51°24.086 2°45.035 5.9 22 16.4 100270 77
2009-07-23 08:37:14 51°24.098 2°45.043 5.8 302 16.4 100270 77
2009-07-23 08:37:19 51°24.111 2°45.052 7 247 16.4 100270 76
2009-07-23 08:37:24 51°24.123 2°45.06 6 304 16.4 100270 76
2009-07-23 08:37:29 51°24.136 2°45.07 5.3 246 16.4 100270 76
2009-07-23 08:37:34 51°24.148 2°45.078 5.9 307 16.4 100270 76
2009-07-23 08:37:38 51°24.158 2°45.086 6 247 16.4 100270 75
2009-07-23 08:37:44 51°24.173 2°45.097 5.2 303 16.4 100270 75
2009-07-23 08:37:49 51°24.185 2°45.106 5 21 16.4 100270 75
2009-07-23 08:37:54 51°24.198 2°45.115 5.9 307 16.4 100270 75
2009-07-23 08:37:58 51°24.208 2°45.123 5.9 25 16.4 100270 78
2009-07-23 08:38:04 51°24.223 2°45.134 5.8 303 16.4 100270 78
2009-07-23 08:38:09 51°24.235 2°45.144 5.1 251 16.5 100270 69
2009-07-23 08:38:14 51°24.247 2°45.155 4.6 302 16.5 100270 69
2009-07-23 08:38:18 51°24.255 2°45.165 4.9 249 16.4 100270 80
2009-07-23 08:38:24 51°24.269 2°45.179 4.3 279 16.4 100270 80
2009-07-23 08:38:29 51°24.279 2°45.194 3.8 248 16.4 100270 81
2009-07-23 08:38:34 51°24.29 2°45.207 4 308 16.4 100270 81
2009-07-23 08:38:38 51°24.298 2°45.219 4.2 254 16.4 100270 79
2009-07-23 08:38:44 51°24.31 2°45.236 4.9 304 16.4 100270 79
2009-07-23 08:38:49 51°24.319 2°45.252 4.1 256 16.5 100280 80
2009-07-23 08:38:54 51°24.329 2°45.267 3 302 16.5 100280 80
2009-07-23 08:38:59 51°24.339 2°45.283 3.5 22 16.4 100280 78
2009-07-23 08:39:04 51°24.348 2°45.298 3.5 304 16.4 100280 78
2009-07-23 08:39:09 51°24.357 2°45.315 4 245 16.4 100280 79
2009-07-23 08:39:14 51°24.367 2°45.33 3.2 306 16.4 100280 79
2009-07-23 08:39:19 51°24.376 2°45.346 2.9 251 16.5 100280 80
2009-07-23 08:39:24 51°24.385 2°45.363 3.4 284 16.5 100280 80
2009-07-23 08:39:29 51°24.393 2°45.38 3.3 247 16.4 100280 80
2009-07-23 08:39:34 51°24.401 2°45.398 3.5 307 16.4 100280 80
2009-07-23 08:39:39 51°24.409 2°45.416 3.9 254 16.4 100280 78
2009-07-23 08:39:44 51°24.416 2°45.434 3 304 16.4 100280 78
2009-07-23 08:39:49 51°24.423 2°45.453 3.9 256 16.4 100280 78
2009-07-23 08:39:54 51°24.43 2°45.472 2.6 307 16.4 100280 78
2009-07-23 08:39:59 51°24.436 2°45.491 2.8 261 16.4 100280 79
2009-07-23 08:40:04 51°24.443 2°45.509 1.5 307 16.4 100280 79
2009-07-23 08:40:09 51°24.449 2°45.529 2 259 16.4 100280 75
2009-07-23 08:40:14 51°24.457 2°45.547 1.9 302 16.4 100280 75
2009-07-23 08:40:18 51°24.462 2°45.563 2 258 16.4 100280 79
2009-07-23 08:40:24 51°24.469 2°45.585 1.8 279 16.4 100280 79
2009-07-23 08:40:29 51°24.476 2°45.605 1.7 257 16.4 100290 79
2009-07-23 08:40:34 51°24.482 2°45.624 1.7 304 16.4 100290 79
2009-07-23 08:40:39 51°24.488 2°45.643 1.7 22 16.4 100280 76
2009-07-23 08:40:44 51°24.494 2°45.663 1.6 302 16.4 100280 76
2009-07-23 08:40:49 51°24.501 2°45.683 2.2 252 16.4 100280 77
2009-07-23 08:40:54 51°24.507 2°45.702 1.9 303 16.4 100280 77
2009-07-23 08:40:59 51°24.513 2°45.722 2 253 16.4 100280 76
2009-07-23 08:41:04 51°24.519 2°45.742 2.5 307 16.4 100280 76
2009-07-23 08:41:09 51°24.525 2°45.762 2.2 253 16.4 100280 77
2009-07-23 08:41:14 51°24.531 2°45.782 1.8 304 16.4 100280 77
2009-07-23 08:41:19 51°24.537 2°45.801 2 257 16.4 100280 78
2009-07-23 08:41:24 51°24.544 2°45.821 1.9 278 16.4 100280 78
2009-07-23 08:41:29 51°24.55 2°45.84 2.3 255 16.4 100280 78
2009-07-23 08:41:34 51°24.557 2°45.859 1.8 311 16.4 100280 78
2009-07-23 08:41:39 51°24.565 2°45.878 2.8 255 16.4 100280 78
2009-07-23 08:41:44 51°24.572 2°45.896 2.5 309 16.4 100280 78
2009-07-23 08:41:49 51°24.58 2°45.914 2.7 254 16.4 100280 78
2009-07-23 08:41:54 51°24.588 2°45.932 2.9 307 16.4 100280 78
2009-07-23 08:41:59 51°24.596 2°45.949 2.5 26 16.4 100280 77
2009-07-23 08:42:04 51°24.604 2°45.967 2.6 310 16.4 100280 77
2009-07-23 08:42:09 51°24.612 2°45.985 3.3 249 16.4 100280 78
2009-07-23 08:42:14 51°24.621 2°46.002 2.8 303 16.4 100280 78
2009-07-23 08:42:19 51°24.629 2°46.019 2.6 25 16.4 100280 78
2009-07-23 08:42:24 51°24.638 2°46.037 3.5 282 16.4 100280 78
2009-07-23 08:42:29 51°24.647 2°46.054 3.8 252 16.4 100280 78
2009-07-23 08:42:34 51°24.655 2°46.071 2.6 302 16.4 100280 78
2009-07-23 08:42:38 51°24.662 2°46.085 3.1 250 16.4 100280 77
2009-07-23 08:42:44 51°24.672 2°46.106 3 307 16.4 100280 77
2009-07-23 08:42:49 51°24.681 2°46.123 3.2 249 16.4 100280 77
2009-07-23 08:42:54 51°24.689 2°46.14 2.9 307 16.4 100280 77
2009-07-23 08:42:58 51°24.696 2°46.154 3.2 22 16.4 100280 79
2009-07-23 08:43:04 51°24.706 2°46.175 3.6 308 16.4 100280 79
2009-07-23 08:43:09 51°24.714 2°46.192 2.7 23 16.4 100280 78
2009-07-23 08:43:14 51°24.723 2°46.209 3.3 308 16.4 100280 78
2009-07-23 08:43:18 51°24.73 2°46.223 3.5 23 16.4 100280 78
2009-07-23 08:43:23 51°24.738 2°46.24 3 308 16.4 100280 78
2009-07-23 08:43:29 51°24.749 2°46.26 2.8 26 16.4 100280 78
2009-07-23 08:43:34 51°24.757 2°46.277 3.2 303 16.4 100280 78
2009-07-23 08:43:39 51°24.766 2°46.293 3.5 246 16.4 100280 78
2009-07-23 08:43:44 51°24.775 2°46.31 3 301 16.4 100280 78
2009-07-23 08:43:49 51°24.783 2°46.327 2.7 20 16.4 100280 77
2009-07-23 08:43:54 51°24.792 2°46.345 3.6 307 16.4 100280 77
2009-07-23 08:43:59 51°24.801 2°46.361 4.9 251 16.4 100290 77
2009-07-23 08:44:04 51°24.809 2°46.379 4.7 303 16.4 100290 77
2009-07-23 08:44:09 51°24.818 2°46.396 4.9 252 16.4 100280 79
2009-07-23 08:44:14 51°24.826 2°46.414 3.3 303 16.4 100280 79
2009-07-23 08:44:19 51°24.833 2°46.432 3.9 260 16.4 100280 78
2009-07-23 08:44:24 51°24.842 2°46.45 3.4 280 16.4 100280 78
2009-07-23 08:44:29 51°24.849 2°46.468 3.4 256 16.4 100280 79
2009-07-23 08:44:34 51°24.857 2°46.486 3.7 303 16.4 100280 79
2009-07-23 08:44:38 51°24.862 2°46.501 1.7 262 16.4 100280 79
2009-07-23 08:44:44 51°24.871 2°46.524 4.3 303 16.4 100280 79
2009-07-23 08:44:49 51°24.878 2°46.542 3.3 260 16.4 100290 78
2009-07-23 08:44:54 51°24.886 2°46.56 3.7 302 16.4 100290 78
2009-07-23 08:44:59 51°24.893 2°46.579 2.9 253 16.4 100290 79
2009-07-23 08:45:04 51°24.901 2°46.598 5.1 304 16.4 100290 79
2009-07-23 08:45:09 51°24.908 2°46.616 3.6 259 16.4 100280 78
2009-07-23 08:45:14 51°24.915 2°46.636 4 304 16.4 100280 78
2009-07-23 08:45:19 51°24.922 2°46.654 4.5 257 16.3 100290 78
2009-07-23 08:45:24 51°24.929 2°46.673 3.7 305 16.3 100290 78
2009-07-23 08:45:29 51°24.936 2°46.691 3.1 257 16.4 100290 79
2009-07-23 08:45:34 51°24.943 2°46.71 3.8 302 16.4 100290 79
2009-07-23 08:45:38 51°24.949 2°46.725 3.1 260 16.3 100280 78
2009-07-23 08:45:44 51°24.957 2°46.748 4.4 304 16.3 100280 78
2009-07-23 08:45:49 51°24.965 2°46.767 4.3 255 16.3 100280 78
2009-07-23 08:45:54 51°24.972 2°46.786 4.6 304 16.3 100280 78
2009-07-23 08:45:59 51°24.98 2°46.804 3.4 260 16.4 100290 77
2009-07-23 08:46:04 51°24.987 2°46.824 2.4 303 16.4 100290 77
2009-07-23 08:46:09 51°24.994 2°46.843 2.8 258 16.3 100290 79
2009-07-23 08:46:14 51°25.001 2°46.862 2.9 307 16.3 100290 79
2009-07-23 08:46:19 51°25.008 2°46.881 3.2 258 16.3 100290 79
2009-07-23 08:46:24 51°25.015 2°46.9 2.5 282 16.3 100290 79
2009-07-23 08:46:29 51°25.022 2°46.919 3.2 257 16.3 100290 77
2009-07-23 08:46:34 51°25.029 2°46.938 3.8 308 16.3 100290 77
2009-07-23 08:46:39 51°25.036 2°46.958 2.4 265 16.3 100280 78
2009-07-23 08:46:44 51°25.043 2°46.977 3.1 302 16.3 100280 78
2009-07-23 08:46:49 51°25.05 2°46.996 4.1 259 16.3 100280 78
2009-07-23 08:46:54 51°25.057 2°47.016 3.3 304 16.3 100280 78
2009-07-23 08:46:58 51°25.062 2°47.031 2.6 260 16.3 100290 79
2009-07-23 08:47:04 51°25.071 2°47.055 2.4 305 16.3 100290 79
2009-07-23 08:47:09 51°25.078 2°47.074 2 261 16.3 100290 78
2009-07-23 08:47:14 51°25.086 2°47.093 1.8 305 16.3 100290 78
2009-07-23 08:47:19 51°25.093 2°47.112 1.9 264 16.3 100290 80
2009-07-23 08:47:24 51°25.1 2°47.131 1.9 307 16.3 100290 80
2009-07-23 08:47:29 51°25.106 2°47.151 2.2 258 16.3 100290 80
2009-07-23 08:47:34 51°25.113 2°47.17 3.3 310 16.3 100290 80
2009-07-23 08:47:39 51°25.121 2°47.189 3.2 252 16.3 100290 79
2009-07-23 08:47:44 51°25.128 2°47.208 3.5 307 16.3 100290 79